1872 NOT_NAMED (1872039S12085)


IBTrACS version v04r00. Visit IBTrACS website for data access.
Please direct all questions to the IBTrACS Q and A forum

Storm track - Intensity - Wind Radii - Intensity Data - Source Data - All data

Summary Information

Storm ID 1872039S12085
Start Feb 7 18Z
End Feb 19 06Z
ATCF IDs
Track status Best track data.

Storm track plot

Map of storm track

Intensity plots

No Intensity information for this storm


Radial wind information

No radial wind information for this storm


Position and Intensity Table

BASIN ISO_TIME_________ NATURE LAT LON
degrees north degrees east
SI 1872-02-07 18:00:00 NR -12.30 85.20
SI 21:00:00 NR -12.37 84.92
SI 1872-02-08 00:00:00 NR -12.44 84.62
SI 03:00:00 NR -12.51 84.25
SI 06:00:00 NR -12.60 83.80
SI 09:00:00 NR -12.70 83.24
SI 12:00:00 NR -12.80 82.61
SI 15:00:00 NR -12.90 81.95
SI 18:00:00 NR -13.00 81.30
SI 21:00:00 NR -13.07 80.73
SI 1872-02-09 00:00:00 NR -13.14 80.18
SI 03:00:00 NR -13.21 79.64
SI 06:00:00 NR -13.30 79.10
SI 09:00:00 NR -13.41 78.51
SI 12:00:00 NR -13.54 77.92
SI 15:00:00 NR -13.67 77.34
SI 18:00:00 NR -13.80 76.80
SI 21:00:00 NR -13.91 76.32
SI 1872-02-10 00:00:00 NR -14.01 75.88
SI 03:00:00 NR -14.10 75.44
SI 06:00:00 NR -14.20 75.00
SI 09:00:00 NR -14.30 74.50
SI 12:00:00 NR -14.40 73.99
SI 15:00:00 NR -14.50 73.49
SI 18:00:00 NR -14.60 73.00
SI 21:00:00 NR -14.70 72.55
SI 1872-02-11 00:00:00 NR -14.80 72.12
SI 03:00:00 NR -14.90 71.71
SI 06:00:00 NR -15.00 71.30
SI 09:00:00 NR -15.10 70.89
SI 12:00:00 NR -15.19 70.49
SI 15:00:00 NR -15.29 70.10
SI 18:00:00 NR -15.40 69.70
SI 21:00:00 NR -15.51 69.33
SI 1872-02-12 00:00:00 NR -15.63 68.96
SI 03:00:00 NR -15.76 68.56
SI 06:00:00 NR -15.90 68.10
SI 09:00:00 NR -16.04 67.54
SI 12:00:00 NR -16.19 66.93
SI 15:00:00 NR -16.34 66.30
SI 18:00:00 NR -16.50 65.70
SI 21:00:00 NR -16.66 65.19
SI 1872-02-13 00:00:00 NR -16.83 64.70
SI 03:00:00 NR -17.01 64.21
SI 06:00:00 NR -17.20 63.70
SI 09:00:00 NR -17.40 63.12
SI 12:00:00 NR -17.60 62.51
SI 15:00:00 NR -17.80 61.89
SI 18:00:00 NR -18.00 61.30
SI 21:00:00 NR -18.18 60.74
SI 1872-02-14 00:00:00 NR -18.36 60.20
SI 03:00:00 NR -18.53 59.69
SI 06:00:00 NR -18.70 59.20
SI 09:00:00 NR -18.87 58.74
SI 12:00:00 NR -19.04 58.29
SI 15:00:00 NR -19.22 57.85
SI 18:00:00 NR -19.40 57.40
SI 21:00:00 NR -19.61 56.87
SI 1872-02-15 00:00:00 NR -19.82 56.34
SI 03:00:00 NR -20.02 55.84
SI 06:00:00 NR -20.20 55.40
SI 09:00:00 NR -20.34 55.08
SI 12:00:00 NR -20.46 54.83
SI 15:00:00 NR -20.57 54.62
SI 18:00:00 NR -20.70 54.40
SI 21:00:00 NR -20.85 54.13
SI 1872-02-16 00:00:00 NR -21.02 53.86
SI 03:00:00 NR -21.20 53.58
SI 06:00:00 NR -21.40 53.30
SI 09:00:00 NR -21.61 53.01
SI 12:00:00 NR -21.84 52.73
SI 15:00:00 NR -22.07 52.45
SI 18:00:00 NR -22.30 52.20
SI 21:00:00 NR -22.48 51.99
SI 1872-02-17 00:00:00 NR -22.66 51.79
SI 03:00:00 NR -22.86 51.60
SI 06:00:00 NR -23.10 51.40
SI 09:00:00 NR -23.39 51.14
SI 12:00:00 NR -23.73 50.87
SI 15:00:00 NR -24.10 50.62
SI 18:00:00 NR -24.50 50.40
SI 21:00:00 NR -24.78 50.18
SI 1872-02-18 00:00:00 NR -25.12 50.01
SI 03:00:00 NR -25.59 49.94
SI 06:00:00 NR -26.30 50.00
SI 09:00:00 NR -27.44 50.17
SI 12:00:00 NR -28.79 50.50
SI 15:00:00 NR -30.20 50.97
SI 18:00:00 NR -31.50 51.60
SI 21:00:00 NR -32.55 52.37
SI 1872-02-19 00:00:00 NR -33.39 53.24
SI 03:00:00 NR -34.08 54.20
SI 06:00:00 NR -34.70 55.20

Source Information

Agency Information
USA
TOKYO
CMA
HKO
NEWDELHI
REUNION
BOM
NADI
WELLINGTON
DS824
TD9636 cons_worldwide_trop_cyclone_18710101-19891231-005:Line=1231
TD9635
NEUMANN
MLC

All available IBTrACS Data

SEASON BASIN SUBBASIN ISO_TIME_________ NATURE LAT LON DIST2LAND LANDFALL IFLAG USA SSHS TD9636 LAT TD9636 LON TD9636 STAGE STORM SPEED STORM DIR
Year degrees north degrees east km km 1 degrees north degrees east kts degrees
1872 SI MM 1872-02-07 18:00:00 NR -12.30 85.20 1921 1921 __________O___ -1 -12.30 85.20 7 6 256
1872 SI MM 21:00:00 NR -12.37 84.92 1954 1954 __________P___ -1 -12.37 84.92 7 6 256
1872 SI MM 1872-02-08 00:00:00 NR -12.44 84.62 1980 1980 __________P___ -1 -12.44 84.62 7 7 257
1872 SI MM 03:00:00 NR -12.51 84.25 2013 2013 __________P___ -1 -12.51 84.25 7 8 258
1872 SI MM 06:00:00 NR -12.60 83.80 2064 2064 __________O___ -1 -12.60 83.80 7 10 259
1872 SI MM 09:00:00 NR -12.70 83.24 2103 2099 __________P___ -1 -12.70 83.24 7 12 260
1872 SI MM 12:00:00 NR -12.80 82.61 2106 2103 __________P___ -1 -12.80 82.61 7 13 261
1872 SI MM 15:00:00 NR -12.90 81.95 2111 2109 __________P___ -1 -12.90 81.95 7 13 261
1872 SI MM 18:00:00 NR -13.00 81.30 2118 2117 __________O___ -1 -13.00 81.30 7 12 262
1872 SI MM 21:00:00 NR -13.07 80.73 2128 2128 __________P___ -1 -13.07 80.73 7 11 263
1872 SI MM 1872-02-09 00:00:00 NR -13.14 80.18 2129 2129 __________P___ -1 -13.14 80.18 7 11 262
1872 SI MM 03:00:00 NR -13.21 79.64 2142 2142 __________P___ -1 -13.21 79.64 7 11 261
1872 SI MM 06:00:00 NR -13.30 79.10 2157 2157 __________O___ -1 -13.30 79.10 7 11 260
1872 SI MM 09:00:00 NR -13.41 78.51 2174 2174 __________P___ -1 -13.41 78.51 7 12 258
1872 SI MM 12:00:00 NR -13.54 77.92 2193 2193 __________P___ -1 -13.54 77.92 7 12 257
1872 SI MM 15:00:00 NR -13.67 77.34 2199 2145 __________P___ -1 -13.67 77.34 7 11 257
1872 SI MM 18:00:00 NR -13.80 76.80 2145 2091 __________O___ -1 -13.80 76.80 7 10 257
1872 SI MM 21:00:00 NR -13.91 76.32 2091 2046 __________P___ -1 -13.91 76.32 7 9 257
1872 SI MM 1872-02-10 00:00:00 NR -14.01 75.88 2046 2002 __________P___ -1 -14.01 75.88 7 9 257
1872 SI MM 03:00:00 NR -14.10 75.44 1992 1948 __________P___ -1 -14.10 75.44 7 9 257
1872 SI MM 06:00:00 NR -14.20 75.00 1948 1894 __________O___ -1 -14.20 75.00 7 9 258
1872 SI MM 09:00:00 NR -14.30 74.50 1894 1840 __________P___ -1 -14.30 74.50 7 10 258
1872 SI MM 12:00:00 NR -14.40 73.99 1840 1786 __________P___ -1 -14.40 73.99 7 10 259
1872 SI MM 15:00:00 NR -14.50 73.49 1786 1733 __________P___ -1 -14.50 73.49 7 10 258
1872 SI MM 18:00:00 NR -14.60 73.00 1733 1689 __________O___ -1 -14.60 73.00 7 9 258
1872 SI MM 21:00:00 NR -14.70 72.55 1679 1635 __________P___ -1 -14.70 72.55 7 9 257
1872 SI MM 1872-02-11 00:00:00 NR -14.80 72.12 1635 1591 __________P___ -1 -14.80 72.12 7 8 256
1872 SI MM 03:00:00 NR -14.90 71.71 1591 1547 __________P___ -1 -14.90 71.71 7 8 256
1872 SI MM 06:00:00 NR -15.00 71.30 1547 1504 __________O___ -1 -15.00 71.30 7 8 256
1872 SI MM 09:00:00 NR -15.10 70.89 1504 1460 __________P___ -1 -15.10 70.89 7 8 256
1872 SI MM 12:00:00 NR -15.19 70.49 1460 1416 __________P___ -1 -15.19 70.49 7 8 256
1872 SI MM 15:00:00 NR -15.29 70.10 1416 1373 __________P___ -1 -15.29 70.10 7 8 255
1872 SI MM 18:00:00 NR -15.40 69.70 1373 1339 __________O___ -1 -15.40 69.70 7 8 253
1872 SI MM 21:00:00 NR -15.51 69.33 1329 1295 __________P___ -1 -15.51 69.33 7 8 252
1872 SI MM 1872-02-12 00:00:00 NR -15.63 68.96 1295 1247 __________P___ -1 -15.63 68.96 7 8 251
1872 SI MM 03:00:00 NR -15.76 68.56 1247 1194 __________P___ -1 -15.76 68.56 7 9 252
1872 SI MM 06:00:00 NR -15.90 68.10 1194 1141 __________O___ -1 -15.90 68.10 7 10 254
1872 SI MM 09:00:00 NR -16.04 67.54 1131 1074 __________P___ -1 -16.04 67.54 7 12 256
1872 SI MM 12:00:00 NR -16.19 66.93 1064 1002 __________P___ -1 -16.19 66.93 7 12 256
1872 SI MM 15:00:00 NR -16.34 66.30 1002 935 __________P___ -1 -16.34 66.30 7 12 255
1872 SI MM 18:00:00 NR -16.50 65.70 935 877 __________O___ -1 -16.50 65.70 7 11 253
1872 SI MM 21:00:00 NR -16.66 65.19 877 825 __________P___ -1 -16.66 65.19 7 10 251
1872 SI MM 1872-02-13 00:00:00 NR -16.83 64.70 825 767 __________P___ -1 -16.83 64.70 7 10 249
1872 SI MM 03:00:00 NR -17.01 64.21 767 710 __________P___ -1 -17.01 64.21 7 10 249
1872 SI MM 06:00:00 NR -17.20 63.70 710 653 __________O___ -1 -17.20 63.70 7 11 250
1872 SI MM 09:00:00 NR -17.40 63.12 643 577 __________P___ -1 -17.40 63.12 7 12 251
1872 SI MM 12:00:00 NR -17.60 62.51 577 511 __________P___ -1 -17.60 62.51 7 12 251
1872 SI MM 15:00:00 NR -17.80 61.89 511 445 __________P___ -1 -17.80 61.89 7 12 251
1872 SI MM 18:00:00 NR -18.00 61.30 445 388 __________O___ -1 -18.00 61.30 7 12 251
1872 SI MM 21:00:00 NR -18.18 60.74 380 330 __________P___ -1 -18.18 60.74 7 11 251
1872 SI MM 1872-02-14 00:00:00 NR -18.36 60.20 324 275 __________P___ -1 -18.36 60.20 7 11 251
1872 SI MM 03:00:00 NR -18.53 59.69 275 221 __________P___ -1 -18.53 59.69 7 10 250
1872 SI MM 06:00:00 NR -18.70 59.20 221 176 __________O___ -1 -18.70 59.20 7 10 249
1872 SI MM 09:00:00 NR -18.87 58.74 170 138 __________P___ -1 -18.87 58.74 7 9 248
1872 SI MM 12:00:00 NR -19.04 58.29 138 102 __________P___ -1 -19.04 58.29 7 9 247
1872 SI MM 15:00:00 NR -19.22 57.85 102 78 __________P___ -1 -19.22 57.85 7 9 247
1872 SI MM 18:00:00 NR -19.40 57.40 78 70 __________O___ -1 -19.40 57.40 7 10 247
1872 SI MM 21:00:00 NR -19.61 56.87 84 84 __________P___ -1 -19.61 56.87 7 11 247
1872 SI MM 1872-02-15 00:00:00 NR -19.82 56.34 127 113 __________P___ -1 -19.82 56.34 7 11 247
1872 SI MM 03:00:00 NR -20.02 55.84 112 89 __________P___ -1 -20.02 55.84 7 10 246
1872 SI MM 06:00:00 NR -20.20 55.40 89 78 __________O___ -1 -20.20 55.40 7 8 246
1872 SI MM 09:00:00 NR -20.34 55.08 81 70 __________P___ -1 -20.34 55.08 7 6 244
1872 SI MM 12:00:00 NR -20.46 54.83 76 76 __________P___ -1 -20.46 54.83 7 5 242
1872 SI MM 15:00:00 NR -20.57 54.62 83 83 __________P___ -1 -20.57 54.62 7 5 239
1872 SI MM 18:00:00 NR -20.70 54.40 94 94 __________O___ -1 -20.70 54.40 7 5 238
1872 SI MM 21:00:00 NR -20.85 54.13 116 116 __________P___ -1 -20.85 54.13 7 6 238
1872 SI MM 1872-02-16 00:00:00 NR -21.02 53.86 135 135 __________P___ -1 -21.02 53.86 7 6 236
1872 SI MM 03:00:00 NR -21.20 53.58 166 166 __________P___ -1 -21.20 53.58 7 6 234
1872 SI MM 06:00:00 NR -21.40 53.30 199 199 __________O___ -1 -21.40 53.30 7 7 232
1872 SI MM 09:00:00 NR -21.61 53.01 234 234 __________P___ -1 -21.61 53.01 7 7 230
1872 SI MM 12:00:00 NR -21.84 52.73 270 270 __________P___ -1 -21.84 52.73 7 7 228
1872 SI MM 15:00:00 NR -22.07 52.45 300 300 __________P___ -1 -22.07 52.45 7 7 227
1872 SI MM 18:00:00 NR -22.30 52.20 337 337 __________O___ -1 -22.30 52.20 7 6 227
1872 SI MM 21:00:00 NR -22.48 51.99 365 365 __________P___ -1 -22.48 51.99 7 5 226
1872 SI MM 1872-02-17 00:00:00 NR -22.66 51.79 383 367 __________P___ -1 -22.66 51.79 7 5 223
1872 SI MM 03:00:00 NR -22.86 51.60 370 355 __________P___ -1 -22.86 51.60 7 6 219
1872 SI MM 06:00:00 NR -23.10 51.40 359 349 __________O___ -1 -23.10 51.40 7 7 219
1872 SI MM 09:00:00 NR -23.39 51.14 341 326 __________P___ -1 -23.39 51.14 7 8 218
1872 SI MM 12:00:00 NR -23.73 50.87 327 305 __________P___ -1 -23.73 50.87 7 9 214
1872 SI MM 15:00:00 NR -24.10 50.62 305 296 __________P___ -1 -24.10 50.62 7 9 209
1872 SI MM 18:00:00 NR -24.50 50.40 299 284 __________O___ -1 -24.50 50.40 7 8 210
1872 SI MM 21:00:00 NR -24.78 50.18 287 276 __________P___ -1 -24.78 50.18 7 7 210
1872 SI MM 1872-02-18 00:00:00 NR -25.12 50.01 280 280 __________P___ -1 -25.12 50.01 7 8 195
1872 SI MM 03:00:00 NR -25.59 49.94 289 289 __________P___ -1 -25.59 49.94 7 12 0
1872 SI MM 06:00:00 NR -26.30 50.00 324 324 __________O___ -1 -26.30 50.00 7 19 173
1872 SI MM 09:00:00 NR -27.44 50.17 409 409 __________P___ -1 -27.44 50.17 7 25 170
1872 SI MM 12:00:00 NR -28.79 50.50 539 539 __________P___ -1 -28.79 50.50 7 29 166
1872 SI MM 15:00:00 NR -30.20 50.97 692 692 __________P___ -1 -30.20 50.97 7 29 161
1872 SI MM 18:00:00 NR -31.50 51.60 844 844 __________O___ -1 -31.50 51.60 7 26 153
1872 SI MM 21:00:00 NR -32.55 52.37 987 987 __________P___ -1 -32.55 52.37 7 23 144
1872 SI MM 1872-02-19 00:00:00 NR -33.39 53.24 1103 1103 __________P___ -1 -33.39 53.24 7 22 135
1872 SI MM 03:00:00 NR -34.08 54.20 1220 1220 __________P___ -1 -34.08 54.20 7 21 129
1872 SI MM 06:00:00 NR -34.70 55.20 1329 __________O___ -1 -34.70 55.20 7 21 127